DNKN/KAN METAR and TAF weather

Enter ICAO airport designator
Station Type Date Time Source
DNKN METAR 2018/04/23 03:00 UTC NOAA

DNKN 230300Z 24007KT CAVOK 28/17 Q1012 NOSIG


Station Type Date Time Source
DNKN Decoded METAR 2018/04/23 03:00 UTC NOAA

Kano, Nigeria (DNKN) 12-03N 008-32E 481M
Apr 22, 2018 - 11:00 PM EDT / 2018.04.23 0300 UTC
Wind: from the WSW (240 degrees) at 8 MPH (7 KT):0
Visibility: greater than 7 mile(s):0
Temperature: 82 F (28 C)
Dew Point: 62 F (17 C)
Relative Humidity: 51%
Pressure (altimeter): 29.88 in. Hg (1012 hPa)
ob: DNKN 230300Z 24007KT CAVOK 28/17 Q1012 NOSIG
cycle: 3

Station Type Date Time Source
DNKN TAF 2018/04/22 18:23 UTC NOAA

TAF DNKN 221530Z 2218/2324 25009KT CAVOK


Example: see airport list